createdAt,value
2022-11-10T00:01:10.762Z,101516.38
2022-11-10T00:03:42.749Z,101397.69
2022-11-10T00:06:14.740Z,101534.78
2022-11-10T00:08:46.690Z,101531.47
2022-11-10T00:11:18.565Z,101522.72
2022-11-10T00:14:08.889Z,101532.25
2022-11-10T00:16:59.345Z,101539.19
2022-11-10T00:19:35.277Z,101532.13
2022-11-10T00:22:07.181Z,101533.63
2022-11-10T00:24:39.063Z,101529.97
2022-11-10T00:27:12.122Z,101541.41
2022-11-10T00:29:44.346Z,101528.94
2022-11-10T00:32:16.243Z,101533.34
2022-11-10T00:34:48.182Z,101535.78
2022-11-10T00:37:20.131Z,101554.31
2022-11-10T00:39:51.993Z,101554.03
2022-11-10T00:42:23.857Z,101546.72
2022-11-10T00:44:55.750Z,101569.13
2022-11-10T00:47:27.697Z,101566.34
2022-11-10T00:49:59.652Z,101570.94
2022-11-10T00:52:31.595Z,101572.63
2022-11-10T00:55:03.864Z,101578.75
2022-11-10T00:57:35.751Z,101580.41
2022-11-10T01:00:09.113Z,101581.25
2022-11-10T01:02:41.042Z,101568.03
2022-11-10T01:05:13.016Z,101559.16
2022-11-10T01:07:44.947Z,101568.97
2022-11-10T01:10:17.236Z,101564.44
2022-11-10T01:12:49.153Z,101571.59
2022-11-10T01:15:27.115Z,101565.31
2022-11-10T01:17:59.588Z,101578.53
2022-11-10T01:20:34.807Z,101580.97
2022-11-10T01:23:06.742Z,101586.22
2022-11-10T01:25:38.645Z,101594.06
2022-11-10T01:28:10.733Z,101595.69
2022-11-10T01:30:42.705Z,101602.53
2022-11-10T01:33:14.597Z,101609.59
2022-11-10T01:35:46.526Z,101606.97
2022-11-10T01:38:18.557Z,101614.00
2022-11-10T01:40:50.462Z,101614.91
2022-11-10T01:43:23.308Z,101612.28
2022-11-10T01:46:00.836Z,101618.31
2022-11-10T01:48:38.203Z,101614.78
2022-11-10T01:51:29.492Z,101611.06
2022-11-10T01:54:12.708Z,101609.19
2022-11-10T01:56:50.616Z,101616.25
2022-11-10T01:59:32.529Z,101617.84
2022-11-10T02:02:20.131Z,101608.91
2022-11-10T02:04:52.927Z,101598.38
2022-11-10T02:07:25.840Z,101607.41
2022-11-10T02:09:57.876Z,101610.97
2022-11-10T02:12:38.130Z,101614.44
2022-11-10T02:15:15.774Z,101613.47
2022-11-10T02:17:48.955Z,101603.50
2022-11-10T02:20:22.313Z,101606.50
2022-11-10T02:22:54.199Z,101616.13
2022-11-10T02:25:32.432Z,101611.69
2022-11-10T02:28:04.524Z,101622.16
2022-11-10T02:30:36.510Z,101630.09
2022-11-10T02:33:08.347Z,101641.59
2022-11-10T02:35:40.240Z,101640.56
2022-11-10T02:38:13.862Z,101650.38
2022-11-10T02:40:45.791Z,101663.59
2022-11-10T02:43:19.708Z,101667.06
2022-11-10T02:45:51.846Z,101671.50
2022-11-10T02:48:23.790Z,101674.81
2022-11-10T02:50:55.701Z,101669.56
2022-11-10T02:53:27.627Z,101664.91
2022-11-10T02:55:59.670Z,101673.78
2022-11-10T02:58:31.584Z,101672.81
2022-11-10T03:01:07.354Z,101671.78
2022-11-10T03:03:39.314Z,101667.09
2022-11-10T03:06:11.268Z,101664.44
2022-11-10T03:08:43.176Z,101667.06
2022-11-10T03:11:15.056Z,101674.81
2022-11-10T03:14:00.794Z,101672.91
2022-11-10T03:16:33.189Z,101686.81
2022-11-10T03:19:05.086Z,101684.34
2022-11-10T03:21:37.676Z,101688.63
2022-11-10T03:24:09.761Z,101694.72
2022-11-10T03:26:41.703Z,101690.44
2022-11-10T03:29:13.614Z,101689.41
2022-11-10T03:31:45.486Z,101702.47
2022-11-10T03:34:17.411Z,101699.03
2022-11-10T03:36:49.327Z,101709.53
2022-11-10T03:39:21.210Z,101719.91
2022-11-10T03:41:53.097Z,101719.44
2022-11-10T03:44:24.992Z,101737.81
2022-11-10T03:46:56.990Z,101729.81
2022-11-10T03:49:29.167Z,101730.69
2022-11-10T03:52:01.179Z,101738.38
2022-11-10T03:54:33.123Z,101732.25
2022-11-10T03:57:04.989Z,101743.59
2022-11-10T03:59:36.905Z,101753.06
2022-11-10T04:02:08.833Z,101745.91
2022-11-10T04:04:59.450Z,101751.91
2022-11-10T04:07:50.103Z,101756.25
2022-11-10T04:10:22.040Z,101751.91
2022-11-10T04:13:12.594Z,101762.38
2022-11-10T04:15:44.615Z,101750.50
2022-11-10T04:18:24.463Z,101769.19
2022-11-10T04:21:00.037Z,101778.72
2022-11-10T04:23:36.466Z,101772.50
2022-11-10T04:26:30.383Z,101780.38
2022-11-10T04:29:05.683Z,101781.19
2022-11-10T04:31:40.701Z,101778.25
2022-11-10T04:34:15.342Z,101786.53
2022-11-10T04:36:47.325Z,101795.19
2022-11-10T04:39:19.250Z,101796.97
2022-11-10T04:41:51.134Z,101807.31
2022-11-10T04:44:23.025Z,101806.41
2022-11-10T04:46:54.896Z,101801.84
2022-11-10T04:49:26.919Z,101789.78
2022-11-10T04:51:58.942Z,101812.28
2022-11-10T04:54:30.889Z,101823.09
2022-11-10T04:57:02.871Z,101821.06
2022-11-10T04:59:34.769Z,101830.81
2022-11-10T05:02:06.660Z,101819.09
2022-11-10T05:04:38.500Z,101838.09
2022-11-10T05:07:10.525Z,101845.97
2022-11-10T05:09:42.421Z,101845.97
2022-11-10T05:12:17.382Z,101838.84
2022-11-10T05:14:53.189Z,101845.00
2022-11-10T05:17:25.127Z,101852.00
2022-11-10T05:19:57.044Z,101858.06
2022-11-10T05:22:29.073Z,101861.53
2022-11-10T05:25:01.014Z,101864.97
2022-11-10T05:27:32.907Z,101830.69
2022-11-10T05:30:05.592Z,101863.25
2022-11-10T05:32:38.426Z,101865.94
2022-11-10T05:35:10.361Z,101861.38
2022-11-10T05:37:42.343Z,101867.19
2022-11-10T05:40:14.516Z,101849.56
2022-11-10T05:42:52.813Z,101846.94
2022-11-10T05:45:27.988Z,101848.34
2022-11-10T05:47:59.897Z,101850.06
2022-11-10T05:50:32.895Z,101850.56
2022-11-10T05:53:05.095Z,101870.75
2022-11-10T05:55:37.083Z,101859.59
2022-11-10T05:58:09.841Z,101876.41
2022-11-10T06:00:41.756Z,101877.91
2022-11-10T06:03:17.332Z,101882.50
2022-11-10T06:05:49.399Z,101875.84
2022-11-10T06:08:21.316Z,101891.34
2022-11-10T06:10:54.623Z,101887.50
2022-11-10T06:13:26.652Z,101903.09
2022-11-10T06:15:58.526Z,101902.78
2022-11-10T06:18:30.442Z,101908.34
2022-11-10T06:21:02.367Z,101908.19
2022-11-10T06:23:34.277Z,101917.13
2022-11-10T06:26:06.161Z,101918.69
2022-11-10T06:28:38.136Z,101920.50
2022-11-10T06:31:10.081Z,101897.81
2022-11-10T06:33:42.863Z,101925.34
2022-11-10T06:36:15.443Z,101920.09
2022-11-10T06:38:47.381Z,101929.41
2022-11-10T06:41:24.186Z,101943.63
2022-11-10T06:43:57.386Z,101945.16
2022-11-10T06:46:29.415Z,101946.81
2022-11-10T06:49:01.490Z,101951.25
2022-11-10T06:51:33.585Z,101947.78
2022-11-10T06:54:05.866Z,101958.38
2022-11-10T06:56:38.208Z,101953.78
2022-11-10T06:59:10.495Z,101942.63
2022-11-10T07:01:42.433Z,101980.31
2022-11-10T07:04:20.391Z,101978.63
2022-11-10T07:06:53.103Z,101948.84
2022-11-10T07:09:25.041Z,101974.94
2022-11-10T07:11:57.498Z,101982.03
2022-11-10T07:14:29.481Z,101984.53
2022-11-10T07:17:01.401Z,101991.91
2022-11-10T07:19:33.563Z,101994.25
2022-11-10T07:22:10.751Z,102006.03
2022-11-10T07:24:43.250Z,102013.25
2022-11-10T07:27:15.178Z,102008.47
2022-11-10T07:29:47.133Z,102021.13
2022-11-10T07:32:19.062Z,102020.41
2022-11-10T07:34:51.394Z,102036.69
2022-11-10T07:37:24.032Z,102047.44
2022-11-10T07:39:55.950Z,102047.44
2022-11-10T07:42:27.824Z,102037.09
2022-11-10T07:44:59.779Z,102043.34
2022-11-10T07:47:31.636Z,102041.53
2022-11-10T07:50:04.105Z,102040.72
2022-11-10T07:52:36.074Z,102040.97
2022-11-10T07:55:08.384Z,102041.16
2022-11-10T07:57:40.284Z,102050.16
2022-11-10T08:00:12.972Z,102040.72
2022-11-10T08:02:44.951Z,102045.97
2022-11-10T08:05:16.962Z,102050.09
2022-11-10T08:07:48.944Z,102062.81
2022-11-10T08:10:20.942Z,102051.81
2022-11-10T08:12:58.068Z,102066.38
2022-11-10T08:15:32.211Z,102072.13
2022-11-10T08:18:16.664Z,102084.78
2022-11-10T08:20:49.135Z,102087.06
2022-11-10T08:23:21.519Z,102090.16
2022-11-10T08:25:53.623Z,102079.38
2022-11-10T08:28:26.381Z,102061.38
2022-11-10T08:31:02.849Z,102088.78
2022-11-10T08:33:37.209Z,102082.97
2022-11-10T08:36:09.744Z,102106.25
2022-11-10T08:38:41.954Z,102096.16
2022-11-10T08:41:13.884Z,102089.72
2022-11-10T08:43:45.798Z,102092.13
2022-11-10T08:46:17.667Z,102075.19
2022-11-10T08:48:49.592Z,102091.97
2022-11-10T08:51:22.322Z,102087.63
2022-11-10T08:53:54.242Z,102106.44
2022-11-10T08:56:26.105Z,102102.00
2022-11-10T08:58:58.005Z,102102.06
2022-11-10T09:01:29.889Z,102086.63
2022-11-10T09:04:01.810Z,102106.28
2022-11-10T09:06:33.774Z,102109.63
2022-11-10T09:09:05.709Z,102119.00
2022-11-10T09:11:37.571Z,102111.91
2022-11-10T09:14:12.678Z,102121.06
2022-11-10T09:16:44.757Z,102115.94
2022-11-10T09:19:19.853Z,102130.53
2022-11-10T09:21:52.249Z,102133.25
2022-11-10T09:24:30.062Z,102134.09
2022-11-10T09:27:03.232Z,102137.91
2022-11-10T09:29:35.124Z,102130.72
2022-11-10T09:32:07.099Z,102115.22
2022-11-10T09:34:39.036Z,102121.66
2022-11-10T09:37:11.198Z,102123.88
2022-11-10T09:39:43.108Z,102129.13
2022-11-10T09:42:38.597Z,102127.00
2022-11-10T09:45:19.838Z,102127.69
2022-11-10T09:48:05.003Z,102135.41
2022-11-10T09:50:54.044Z,102136.31
2022-11-10T09:53:37.975Z,102144.13
2022-11-10T09:56:21.595Z,102150.69
2022-11-10T09:58:53.583Z,102141.97
2022-11-10T10:01:54.681Z,102137.97
2022-11-10T10:04:38.655Z,102127.66
2022-11-10T10:07:54.610Z,102127.78
2022-11-10T10:10:51.526Z,102134.34
2022-11-10T10:13:45.522Z,102136.00
2022-11-10T10:17:08.821Z,102147.91
2022-11-10T10:19:46.363Z,102151.97
2022-11-10T10:22:30.296Z,102149.03
2022-11-10T10:25:11.639Z,102151.84
2022-11-10T10:27:50.676Z,102153.81
2022-11-10T10:30:22.768Z,102156.03
2022-11-10T10:33:13.316Z,102157.34
2022-11-10T10:35:49.264Z,102157.75
2022-11-10T10:38:35.690Z,102175.44
2022-11-10T10:41:24.234Z,102167.47
2022-11-10T10:44:00.646Z,102181.69
2022-11-10T10:46:55.813Z,102176.88
2022-11-10T10:49:31.169Z,102189.81
2022-11-10T10:52:16.434Z,102193.69
2022-11-10T10:55:01.355Z,102198.94
2022-11-10T10:57:33.278Z,102200.94
2022-11-10T11:00:32.041Z,102193.84
2022-11-10T11:03:24.910Z,102193.38
2022-11-10T11:06:07.137Z,102186.44
2022-11-10T11:08:39.140Z,102188.66
2022-11-10T11:11:12.624Z,102189.81
2022-11-10T11:13:44.559Z,102188.88
2022-11-10T11:16:16.692Z,102191.34
2022-11-10T11:18:48.629Z,102181.53
2022-11-10T11:21:37.632Z,102173.06
2022-11-10T11:24:29.788Z,102185.78
2022-11-10T11:27:18.786Z,102186.00
2022-11-10T11:30:05.857Z,102192.41
2022-11-10T11:32:54.913Z,102185.41
2022-11-10T11:35:39.850Z,102185.22
2022-11-10T11:38:27.435Z,102170.16
2022-11-10T11:41:37.343Z,102199.31
2022-11-10T11:44:27.325Z,102222.66
2022-11-10T11:47:01.843Z,102216.97
2022-11-10T11:50:09.990Z,102215.84
2022-11-10T11:53:16.053Z,102228.34
2022-11-10T11:56:05.969Z,102220.56
2022-11-10T11:59:14.026Z,102224.69
2022-11-10T12:02:32.830Z,102231.34
2022-11-10T12:05:24.907Z,102227.63
2022-11-10T12:08:22.687Z,102232.63
2022-11-10T12:11:24.329Z,102251.59
2022-11-10T12:14:22.813Z,102257.06
2022-11-10T12:17:32.001Z,102262.72
2022-11-10T12:20:42.987Z,102247.59
2022-11-10T12:23:35.944Z,102254.47
2022-11-10T12:26:41.262Z,102254.16
2022-11-10T12:29:29.618Z,102248.50
2022-11-10T12:32:27.675Z,102232.59
2022-11-10T12:35:16.013Z,102261.38
2022-11-10T12:38:01.634Z,102247.22
2022-11-10T12:40:42.050Z,102250.38
2022-11-10T12:43:34.366Z,102237.16
2022-11-10T12:46:12.206Z,102243.06
2022-11-10T12:49:06.012Z,102241.88
2022-11-10T12:52:16.302Z,102241.72
2022-11-10T12:54:48.500Z,102241.47
2022-11-10T12:57:26.634Z,102228.59
2022-11-10T13:00:28.385Z,102241.06
2022-11-10T13:03:00.809Z,102240.31
2022-11-10T13:05:55.384Z,102239.78
2022-11-10T13:08:35.317Z,102238.44
2022-11-10T13:11:25.829Z,102247.34
2022-11-10T13:14:05.157Z,102242.09
2022-11-10T13:16:42.538Z,102240.34
2022-11-10T13:19:23.703Z,102249.66
2022-11-10T13:22:01.306Z,102255.34
2022-11-10T13:24:44.305Z,102249.47
2022-11-10T13:27:46.506Z,102253.53
2022-11-10T13:30:45.493Z,102253.75
2022-11-10T13:33:26.271Z,102260.44
2022-11-10T13:35:58.786Z,102266.81
2022-11-10T13:38:35.959Z,102236.44
2022-11-10T13:41:17.128Z,102254.19
2022-11-10T13:43:55.671Z,102265.31
2022-11-10T13:46:44.425Z,102267.69
2022-11-10T13:49:40.875Z,102265.34
2022-11-10T13:52:36.863Z,102260.81
2022-11-10T13:55:27.530Z,102249.13
2022-11-10T13:58:09.009Z,102225.81
2022-11-10T14:00:41.043Z,102234.66
2022-11-10T14:03:54.554Z,102238.59
2022-11-10T14:06:52.993Z,102239.31
2022-11-10T14:09:51.607Z,102241.81
2022-11-10T14:12:50.820Z,102240.88
2022-11-10T14:15:50.579Z,102237.94
2022-11-10T14:18:28.353Z,102246.78
2022-11-10T14:21:02.239Z,102242.00
2022-11-10T14:23:45.840Z,102241.09
2022-11-10T14:26:52.782Z,102251.50
2022-11-10T14:29:39.269Z,102263.03
2022-11-10T14:32:24.792Z,102274.31
2022-11-10T14:34:57.788Z,102252.97
2022-11-10T14:37:30.477Z,102256.94
2022-11-10T14:40:03.273Z,102224.28
2022-11-10T14:42:35.280Z,102201.63
2022-11-10T14:45:24.371Z,102233.69
2022-11-10T14:47:59.533Z,102228.06
2022-11-10T14:50:35.321Z,102246.78
2022-11-10T14:53:29.412Z,102255.50
2022-11-10T14:56:05.657Z,102261.69
2022-11-10T14:58:41.665Z,102275.06
2022-11-10T15:01:38.884Z,102274.97
2022-11-10T15:04:14.882Z,102267.47
2022-11-10T15:06:49.828Z,102278.28
2022-11-10T15:09:32.762Z,102289.44
2022-11-10T15:12:19.748Z,102284.69
2022-11-10T15:15:00.564Z,102283.13
2022-11-10T15:17:51.458Z,102270.09
2022-11-10T15:20:33.605Z,102267.00
2022-11-10T15:23:29.181Z,102272.91
2022-11-10T15:26:06.459Z,102285.97
2022-11-10T15:28:38.414Z,102276.72
2022-11-10T15:31:20.984Z,102279.00
2022-11-10T15:33:57.575Z,102286.75
2022-11-10T15:36:39.580Z,102300.50
2022-11-10T15:39:20.117Z,102310.09
2022-11-10T15:41:58.453Z,102309.97
2022-11-10T15:44:30.329Z,102319.56
2022-11-10T15:47:02.455Z,102326.50
2022-11-10T15:49:38.090Z,102322.81
2022-11-10T15:52:22.714Z,102316.50
2022-11-10T15:54:54.714Z,102307.44
2022-11-10T15:57:26.635Z,102316.91
2022-11-10T15:59:58.630Z,102302.47
2022-11-10T16:02:30.828Z,102304.03
2022-11-10T16:05:11.707Z,102303.78
2022-11-10T16:07:43.594Z,102308.06
2022-11-10T16:10:15.627Z,102320.28
2022-11-10T16:12:47.584Z,102318.16
2022-11-10T16:15:21.438Z,102323.31
2022-11-10T16:17:53.421Z,102322.75
2022-11-10T16:20:25.321Z,102326.41
2022-11-10T16:22:57.249Z,102315.44
2022-11-10T16:25:29.212Z,102319.72
2022-11-10T16:28:04.454Z,102319.22
2022-11-10T16:30:36.551Z,102318.28
2022-11-10T16:33:18.729Z,102323.44
2022-11-10T16:35:53.800Z,102328.75
2022-11-10T16:38:31.996Z,102332.22
2022-11-10T16:41:04.497Z,102330.28
2022-11-10T16:43:36.812Z,102332.53
2022-11-10T16:46:22.394Z,102355.72
2022-11-10T16:48:58.644Z,102342.00
2022-11-10T16:51:48.537Z,102357.31
2022-11-10T16:54:20.992Z,102367.00
2022-11-10T16:56:52.851Z,102365.25
2022-11-10T16:59:25.058Z,102366.94
2022-11-10T17:01:57.258Z,102375.72
2022-11-10T17:04:29.613Z,102378.09
2022-11-10T17:07:01.659Z,102375.34
2022-11-10T17:09:33.613Z,102359.13
2022-11-10T17:12:05.721Z,102377.06
2022-11-10T17:14:37.610Z,102377.75
2022-11-10T17:17:18.531Z,102381.75
2022-11-10T17:19:51.917Z,102389.69
2022-11-10T17:22:25.715Z,102384.06
2022-11-10T17:24:57.837Z,102387.75
2022-11-10T17:27:33.937Z,102395.28
2022-11-10T17:30:11.228Z,102404.09
2022-11-10T17:33:04.061Z,102406.53
2022-11-10T17:35:54.075Z,102421.16
2022-11-10T17:38:32.699Z,102426.44
2022-11-10T17:41:04.720Z,102421.00
2022-11-10T17:43:37.880Z,102424.34
2022-11-10T17:46:16.243Z,102401.03
2022-11-10T17:48:49.687Z,102410.97
2022-11-10T17:51:23.361Z,102399.09
2022-11-10T17:53:55.836Z,102414.44
2022-11-10T17:56:27.757Z,102402.09
2022-11-10T17:58:59.975Z,102401.72
2022-11-10T18:01:31.982Z,102414.25
2022-11-10T18:04:04.136Z,102420.28
2022-11-10T18:06:36.169Z,102425.28
2022-11-10T18:09:08.146Z,102442.00
2022-11-10T18:11:40.413Z,102434.59
2022-11-10T18:14:12.405Z,102435.56
2022-11-10T18:16:44.313Z,102439.88
2022-11-10T18:19:16.317Z,102441.75
2022-11-10T18:21:48.240Z,102452.19
2022-11-10T18:24:20.159Z,102452.78
2022-11-10T18:26:52.103Z,102432.56
2022-11-10T18:29:24.001Z,102463.81
2022-11-10T18:31:55.915Z,102455.81
2022-11-10T18:34:27.847Z,102460.94
2022-11-10T18:36:59.795Z,102450.84
2022-11-10T18:39:31.703Z,102466.91
2022-11-10T18:42:04.276Z,102463.06
2022-11-10T18:44:36.917Z,102468.13
2022-11-10T18:47:12.987Z,102472.34
2022-11-10T18:49:44.907Z,102472.25
2022-11-10T18:52:16.871Z,102462.47
2022-11-10T18:54:48.788Z,102475.44
2022-11-10T18:57:20.995Z,102472.63
2022-11-10T18:59:52.940Z,102466.38
2022-11-10T19:02:24.927Z,102468.94
2022-11-10T19:04:57.222Z,102470.47
2022-11-10T19:07:30.386Z,102465.75
2022-11-10T19:10:02.453Z,102457.44
2022-11-10T19:12:34.712Z,102458.84
2022-11-10T19:15:08.145Z,102466.47
2022-11-10T19:17:40.082Z,102457.59
2022-11-10T19:20:14.675Z,102459.06
2022-11-10T19:22:46.670Z,102455.44
2022-11-10T19:25:18.565Z,102454.53
2022-11-10T19:27:50.449Z,102458.00
2022-11-10T19:30:22.478Z,102464.84
2022-11-10T19:32:54.365Z,102463.63
2022-11-10T19:35:26.370Z,102463.38
2022-11-10T19:37:58.375Z,102471.94
2022-11-10T19:40:30.534Z,102471.94
2022-11-10T19:43:02.603Z,102478.84
2022-11-10T19:45:35.073Z,102480.34
2022-11-10T19:48:07.030Z,102481.00
2022-11-10T19:50:39.020Z,102487.25
2022-11-10T19:53:11.124Z,102496.19
2022-11-10T19:55:43.131Z,102497.81
2022-11-10T19:58:15.231Z,102500.94
2022-11-10T20:00:48.557Z,102511.44
2022-11-10T20:03:20.944Z,102513.97
2022-11-10T20:06:11.969Z,102512.09
2022-11-10T20:08:44.893Z,102515.53
2022-11-10T20:11:23.854Z,102501.44
2022-11-10T20:14:03.773Z,102528.66
2022-11-10T20:16:35.708Z,102526.50
2022-11-10T20:19:07.601Z,102539.28
2022-11-10T20:21:39.538Z,102530.28
2022-11-10T20:24:11.545Z,102537.22
2022-11-10T20:26:43.516Z,102516.09
2022-11-10T20:29:15.474Z,102524.03
2022-11-10T20:31:47.436Z,102533.97
2022-11-10T20:34:19.390Z,102521.13
2022-11-10T20:36:51.253Z,102491.19
2022-11-10T20:39:23.137Z,102523.41
2022-11-10T20:41:55.161Z,102544.75
2022-11-10T20:44:27.188Z,102541.13
2022-11-10T20:46:59.208Z,102542.78
2022-11-10T20:49:31.299Z,102530.78
2022-11-10T20:52:03.401Z,102540.69
2022-11-10T20:54:35.329Z,102549.69
2022-11-10T20:57:07.297Z,102545.22
2022-11-10T20:59:39.236Z,102533.53
2022-11-10T21:02:13.009Z,102537.78
2022-11-10T21:04:45.006Z,102535.16
2022-11-10T21:07:17.087Z,102519.16
2022-11-10T21:09:49.064Z,102527.00
2022-11-10T21:12:39.324Z,102525.28
2022-11-10T21:15:11.289Z,102491.22
2022-11-10T21:17:44.309Z,102522.66
2022-11-10T21:20:16.510Z,102491.81
2022-11-10T21:22:48.506Z,102523.47
2022-11-10T21:25:20.597Z,102524.09
2022-11-10T21:27:52.504Z,102517.47
2022-11-10T21:30:24.374Z,102540.66
2022-11-10T21:32:56.345Z,102552.09
2022-11-10T21:35:28.303Z,102536.66
2022-11-10T21:38:00.220Z,102545.47
2022-11-10T21:40:33.430Z,102541.94
2022-11-10T21:43:05.393Z,102541.19
2022-11-10T21:45:37.406Z,102540.22
2022-11-10T21:48:09.309Z,102548.28
2022-11-10T21:50:41.210Z,102561.28
2022-11-10T21:53:13.284Z,102557.22
2022-11-10T21:55:45.199Z,102568.28
2022-11-10T21:58:17.103Z,102567.94
2022-11-10T22:00:49.228Z,102561.75
2022-11-10T22:03:21.392Z,102563.28
2022-11-10T22:05:53.586Z,102557.69
2022-11-10T22:08:26.749Z,102564.50
2022-11-10T22:11:17.707Z,102569.88
2022-11-10T22:14:08.286Z,102580.28
2022-11-10T22:17:10.038Z,102583.66
2022-11-10T22:19:42.723Z,102589.72
2022-11-10T22:22:14.887Z,102599.75
2022-11-10T22:24:46.751Z,102594.47
2022-11-10T22:27:18.647Z,102600.44
2022-11-10T22:29:50.511Z,102601.34
2022-11-10T22:32:22.462Z,102598.66
2022-11-10T22:34:54.316Z,102604.72
2022-11-10T22:37:33.029Z,102583.78
2022-11-10T22:40:24.517Z,102612.63
2022-11-10T22:43:14.671Z,102608.97
2022-11-10T22:45:46.708Z,102605.25
2022-11-10T22:48:27.367Z,102615.78
2022-11-10T22:51:00.454Z,102626.31
2022-11-10T22:53:37.845Z,102631.63
2022-11-10T22:56:10.396Z,102631.47
2022-11-10T22:58:42.326Z,102645.59
2022-11-10T23:01:14.721Z,102643.81
2022-11-10T23:03:46.719Z,102637.63
2022-11-10T23:06:19.155Z,102637.53
2022-11-10T23:08:51.371Z,102650.50
2022-11-10T23:11:27.403Z,102643.22
2022-11-10T23:13:59.341Z,102637.53
2022-11-10T23:16:34.869Z,102649.16
2022-11-10T23:19:06.774Z,102647.16
2022-11-10T23:21:38.713Z,102653.41
2022-11-10T23:24:10.688Z,102654.41
2022-11-10T23:26:42.610Z,102660.66
2022-11-10T23:29:14.594Z,102653.41
2022-11-10T23:31:46.491Z,102651.56
2022-11-10T23:34:18.420Z,102653.03
2022-11-10T23:36:50.255Z,102655.34
2022-11-10T23:39:22.156Z,102649.19
2022-11-10T23:41:54.042Z,102653.34
2022-11-10T23:44:25.927Z,102655.72
2022-11-10T23:46:57.845Z,102660.97
2022-11-10T23:49:29.767Z,102658.34
2022-11-10T23:52:01.649Z,102664.41
2022-11-10T23:54:33.617Z,102678.28
2022-11-10T23:57:05.786Z,102667.28
2022-11-10T23:59:37.654Z,102674.56
